sensor_id;sensor_type;location;lat;lon;timestamp;P1;durP1;ratioP1;P2;durP2;ratioP2
19998;SDS011;10160;50.926;4.374;2023-07-08T00:02:08;14.70;;;5.68;;
19998;SDS011;10160;50.926;4.374;2023-07-08T00:04:38;9.43;;;4.43;;
19998;SDS011;10160;50.926;4.374;2023-07-08T00:07:05;13.65;;;5.65;;
19998;SDS011;10160;50.926;4.374;2023-07-08T00:09:35;9.90;;;5.00;;
19998;SDS011;10160;50.926;4.374;2023-07-08T00:12:01;13.77;;;5.38;;
19998;SDS011;10160;50.926;4.374;2023-07-08T00:14:29;9.63;;;4.80;;
19998;SDS011;10160;50.926;4.374;2023-07-08T00:16:55;10.57;;;5.35;;
19998;SDS011;10160;50.926;4.374;2023-07-08T00:19:20;10.77;;;5.03;;
19998;SDS011;10160;50.926;4.374;2023-07-08T00:21:49;13.30;;;5.45;;
19998;SDS011;10160;50.926;4.374;2023-07-08T00:24:16;13.43;;;5.35;;
19998;SDS011;10160;50.926;4.374;2023-07-08T00:26:42;11.57;;;5.15;;
19998;SDS011;10160;50.926;4.374;2023-07-08T00:29:11;13.30;;;5.38;;
19998;SDS011;10160;50.926;4.374;2023-07-08T00:31:38;11.18;;;5.10;;
19998;SDS011;10160;50.926;4.374;2023-07-08T00:34:03;9.82;;;4.88;;
19998;SDS011;10160;50.926;4.374;2023-07-08T00:36:29;12.90;;;4.90;;
19998;SDS011;10160;50.926;4.374;2023-07-08T00:38:58;9.73;;;4.65;;
19998;SDS011;10160;50.926;4.374;2023-07-08T00:43:59;12.48;;;5.22;;
19998;SDS011;10160;50.926;4.374;2023-07-08T00:51:53;10.75;;;5.15;;
19998;SDS011;10160;50.926;4.374;2023-07-08T00:54:20;11.25;;;4.80;;
19998;SDS011;10160;50.926;4.374;2023-07-08T00:56:56;10.25;;;4.95;;
19998;SDS011;10160;50.926;4.374;2023-07-08T00:59:35;8.95;;;5.20;;
19998;SDS011;10160;50.926;4.374;2023-07-08T01:02:09;9.27;;;4.85;;
19998;SDS011;10160;50.926;4.374;2023-07-08T01:04:39;9.00;;;4.75;;
19998;SDS011;10160;50.926;4.374;2023-07-08T01:07:12;11.23;;;5.07;;
19998;SDS011;10160;50.926;4.374;2023-07-08T01:09:42;8.95;;;4.60;;
19998;SDS011;10160;50.926;4.374;2023-07-08T01:12:13;10.68;;;5.00;;
19998;SDS011;10160;50.926;4.374;2023-07-08T01:14:43;11.27;;;5.75;;
19998;SDS011;10160;50.926;4.374;2023-07-08T01:17:10;13.70;;;5.88;;
19998;SDS011;10160;50.926;4.374;2023-07-08T01:19:39;8.98;;;4.60;;
19998;SDS011;10160;50.926;4.374;2023-07-08T01:22:06;12.32;;;4.97;;
19998;SDS011;10160;50.926;4.374;2023-07-08T01:24:34;9.98;;;4.90;;
19998;SDS011;10160;50.926;4.374;2023-07-08T01:27:02;9.73;;;5.05;;
19998;SDS011;10160;50.926;4.374;2023-07-08T01:29:31;11.02;;;4.85;;
19998;SDS011;10160;50.926;4.374;2023-07-08T01:32:00;12.88;;;5.03;;
19998;SDS011;10160;50.926;4.374;2023-07-08T01:34:31;12.15;;;5.32;;
19998;SDS011;10160;50.926;4.374;2023-07-08T01:36:57;11.10;;;5.47;;
19998;SDS011;10160;50.926;4.374;2023-07-08T01:39:26;12.02;;;5.78;;
19998;SDS011;10160;50.926;4.374;2023-07-08T01:41:55;11.18;;;5.70;;
19998;SDS011;10160;50.926;4.374;2023-07-08T01:46:56;9.65;;;5.00;;
19998;SDS011;10160;50.926;4.374;2023-07-08T01:49:28;14.55;;;5.72;;
19998;SDS011;10160;50.926;4.374;2023-07-08T01:51:54;9.90;;;5.10;;
19998;SDS011;10160;50.926;4.374;2023-07-08T01:54:23;11.90;;;5.90;;
19998;SDS011;10160;50.926;4.374;2023-07-08T01:56:54;15.30;;;6.25;;
19998;SDS011;10160;50.926;4.374;2023-07-08T01:59:21;16.00;;;5.22;;
19998;SDS011;10160;50.926;4.374;2023-07-08T02:01:46;11.32;;;5.32;;
19998;SDS011;10160;50.926;4.374;2023-07-08T02:04:14;10.95;;;6.00;;
19998;SDS011;10160;50.926;4.374;2023-07-08T02:06:40;8.88;;;5.15;;
19998;SDS011;10160;50.926;4.374;2023-07-08T02:09:07;9.75;;;5.32;;
19998;SDS011;10160;50.926;4.374;2023-07-08T02:11:32;11.02;;;5.15;;
19998;SDS011;10160;50.926;4.374;2023-07-08T02:13:58;10.05;;;5.10;;
19998;SDS011;10160;50.926;4.374;2023-07-08T02:16:25;9.15;;;5.55;;
19998;SDS011;10160;50.926;4.374;2023-07-08T02:18:51;9.73;;;5.30;;
19998;SDS011;10160;50.926;4.374;2023-07-08T02:21:17;10.77;;;5.32;;
19998;SDS011;10160;50.926;4.374;2023-07-08T02:23:44;12.45;;;6.30;;
19998;SDS011;10160;50.926;4.374;2023-07-08T02:26:14;10.25;;;5.38;;
19998;SDS011;10160;50.926;4.374;2023-07-08T02:28:39;11.27;;;4.93;;
19998;SDS011;10160;50.926;4.374;2023-07-08T02:31:05;12.02;;;5.38;;
19998;SDS011;10160;50.926;4.374;2023-07-08T02:33:31;13.45;;;5.93;;
19998;SDS011;10160;50.926;4.374;2023-07-08T02:35:58;11.55;;;6.40;;
19998;SDS011;10160;50.926;4.374;2023-07-08T02:38:28;10.73;;;5.57;;
19998;SDS011;10160;50.926;4.374;2023-07-08T02:40:55;14.52;;;5.65;;
19998;SDS011;10160;50.926;4.374;2023-07-08T02:43:21;10.10;;;5.68;;
19998;SDS011;10160;50.926;4.374;2023-07-08T02:45:50;11.15;;;5.57;;
19998;SDS011;10160;50.926;4.374;2023-07-08T02:48:19;14.32;;;5.40;;
19998;SDS011;10160;50.926;4.374;2023-07-08T02:50:45;9.07;;;5.30;;
19998;SDS011;10160;50.926;4.374;2023-07-08T02:53:11;9.65;;;5.43;;
19998;SDS011;10160;50.926;4.374;2023-07-08T02:55:38;11.02;;;5.35;;
19998;SDS011;10160;50.926;4.374;2023-07-08T02:58:03;12.77;;;5.70;;
19998;SDS011;10160;50.926;4.374;2023-07-08T03:00:29;12.85;;;6.00;;
19998;SDS011;10160;50.926;4.374;2023-07-08T03:02:55;10.07;;;6.00;;
19998;SDS011;10160;50.926;4.374;2023-07-08T03:05:20;11.00;;;6.25;;
19998;SDS011;10160;50.926;4.374;2023-07-08T03:07:46;11.20;;;5.80;;
19998;SDS011;10160;50.926;4.374;2023-07-08T03:10:12;13.68;;;5.90;;
19998;SDS011;10160;50.926;4.374;2023-07-08T03:12:37;12.43;;;6.07;;
19998;SDS011;10160;50.926;4.374;2023-07-08T03:15:04;10.90;;;5.70;;
19998;SDS011;10160;50.926;4.374;2023-07-08T03:17:30;13.02;;;5.60;;
19998;SDS011;10160;50.926;4.374;2023-07-08T03:19:56;12.80;;;5.82;;
19998;SDS011;10160;50.926;4.374;2023-07-08T03:22:21;12.63;;;6.35;;
19998;SDS011;10160;50.926;4.374;2023-07-08T03:24:47;13.90;;;6.65;;
19998;SDS011;10160;50.926;4.374;2023-07-08T03:27:13;11.23;;;6.10;;
19998;SDS011;10160;50.926;4.374;2023-07-08T03:29:39;13.73;;;6.88;;
19998;SDS011;10160;50.926;4.374;2023-07-08T03:32:07;11.10;;;6.40;;
19998;SDS011;10160;50.926;4.374;2023-07-08T03:34:37;13.85;;;7.43;;
19998;SDS011;10160;50.926;4.374;2023-07-08T03:37:03;16.33;;;7.50;;
19998;SDS011;10160;50.926;4.374;2023-07-08T03:39:29;15.93;;;7.13;;
19998;SDS011;10160;50.926;4.374;2023-07-08T03:41:57;13.80;;;7.10;;
19998;SDS011;10160;50.926;4.374;2023-07-08T03:44:22;12.90;;;5.97;;
19998;SDS011;10160;50.926;4.374;2023-07-08T03:46:48;12.05;;;6.35;;
19998;SDS011;10160;50.926;4.374;2023-07-08T03:49:15;14.25;;;6.82;;
19998;SDS011;10160;50.926;4.374;2023-07-08T03:51:46;14.00;;;6.35;;
19998;SDS011;10160;50.926;4.374;2023-07-08T03:54:13;10.80;;;5.65;;
19998;SDS011;10160;50.926;4.374;2023-07-08T03:56:40;11.60;;;6.10;;
19998;SDS011;10160;50.926;4.374;2023-07-08T03:59:06;18.25;;;6.75;;
19998;SDS011;10160;50.926;4.374;2023-07-08T04:01:32;11.63;;;6.13;;
19998;SDS011;10160;50.926;4.374;2023-07-08T04:03:58;11.68;;;6.25;;
19998;SDS011;10160;50.926;4.374;2023-07-08T04:06:25;14.15;;;6.30;;
19998;SDS011;10160;50.926;4.374;2023-07-08T04:08:51;11.50;;;6.75;;
19998;SDS011;10160;50.926;4.374;2023-07-08T04:11:21;10.38;;;5.25;;
19998;SDS011;10160;50.926;4.374;2023-07-08T04:13:48;16.33;;;6.05;;
19998;SDS011;10160;50.926;4.374;2023-07-08T04:16:25;13.82;;;6.13;;
19998;SDS011;10160;50.926;4.374;2023-07-08T04:18:56;11.43;;;6.05;;
19998;SDS011;10160;50.926;4.374;2023-07-08T04:21:22;13.80;;;6.43;;
19998;SDS011;10160;50.926;4.374;2023-07-08T04:23:50;11.30;;;5.93;;
19998;SDS011;10160;50.926;4.374;2023-07-08T04:26:16;15.23;;;6.55;;
19998;SDS011;10160;50.926;4.374;2023-07-08T04:28:43;15.07;;;6.55;;
19998;SDS011;10160;50.926;4.374;2023-07-08T04:31:09;13.90;;;6.10;;
19998;SDS011;10160;50.926;4.374;2023-07-08T04:33:35;10.90;;;5.85;;
19998;SDS011;10160;50.926;4.374;2023-07-08T04:36:05;12.02;;;5.78;;
19998;SDS011;10160;50.926;4.374;2023-07-08T04:38:37;10.35;;;6.32;;
19998;SDS011;10160;50.926;4.374;2023-07-08T04:41:03;14.95;;;6.47;;
19998;SDS011;10160;50.926;4.374;2023-07-08T04:43:28;12.68;;;6.45;;
19998;SDS011;10160;50.926;4.374;2023-07-08T04:45:54;14.38;;;6.68;;
19998;SDS011;10160;50.926;4.374;2023-07-08T04:48:22;11.25;;;5.80;;
19998;SDS011;10160;50.926;4.374;2023-07-08T04:50:50;22.65;;;6.85;;
19998;SDS011;10160;50.926;4.374;2023-07-08T04:53:17;14.90;;;7.60;;
19998;SDS011;10160;50.926;4.374;2023-07-08T04:55:55;17.60;;;8.05;;
19998;SDS011;10160;50.926;4.374;2023-07-08T04:58:21;31.00;;;8.27;;
19998;SDS011;10160;50.926;4.374;2023-07-08T05:00:47;30.65;;;8.32;;
19998;SDS011;10160;50.926;4.374;2023-07-08T05:03:13;18.85;;;7.95;;
19998;SDS011;10160;50.926;4.374;2023-07-08T05:05:38;18.00;;;7.18;;
19998;SDS011;10160;50.926;4.374;2023-07-08T05:08:04;16.02;;;7.13;;
19998;SDS011;10160;50.926;4.374;2023-07-08T05:10:31;18.15;;;6.70;;
19998;SDS011;10160;50.926;4.374;2023-07-08T05:12:56;17.80;;;7.13;;
19998;SDS011;10160;50.926;4.374;2023-07-08T05:15:22;16.83;;;7.05;;
19998;SDS011;10160;50.926;4.374;2023-07-08T05:17:49;20.90;;;7.28;;
19998;SDS011;10160;50.926;4.374;2023-07-08T05:20:16;14.27;;;6.75;;
19998;SDS011;10160;50.926;4.374;2023-07-08T05:22:43;13.80;;;7.47;;
19998;SDS011;10160;50.926;4.374;2023-07-08T05:25:10;11.88;;;6.60;;
19998;SDS011;10160;50.926;4.374;2023-07-08T05:27:37;12.18;;;6.53;;
19998;SDS011;10160;50.926;4.374;2023-07-08T05:30:03;12.00;;;6.88;;
19998;SDS011;10160;50.926;4.374;2023-07-08T05:32:32;15.25;;;6.93;;
19998;SDS011;10160;50.926;4.374;2023-07-08T05:34:57;14.52;;;7.10;;
19998;SDS011;10160;50.926;4.374;2023-07-08T05:37:23;14.85;;;6.65;;
19998;SDS011;10160;50.926;4.374;2023-07-08T05:39:54;15.00;;;7.35;;
19998;SDS011;10160;50.926;4.374;2023-07-08T05:42:20;13.93;;;6.32;;
19998;SDS011;10160;50.926;4.374;2023-07-08T05:44:46;14.32;;;6.50;;
19998;SDS011;10160;50.926;4.374;2023-07-08T05:47:13;12.57;;;6.43;;
19998;SDS011;10160;50.926;4.374;2023-07-08T05:49:39;14.35;;;7.15;;
19998;SDS011;10160;50.926;4.374;2023-07-08T05:52:05;20.65;;;8.18;;
19998;SDS011;10160;50.926;4.374;2023-07-08T05:54:36;15.45;;;7.68;;
19998;SDS011;10160;50.926;4.374;2023-07-08T05:57:03;30.27;;;7.57;;
19998;SDS011;10160;50.926;4.374;2023-07-08T05:59:29;13.18;;;7.05;;
19998;SDS011;10160;50.926;4.374;2023-07-08T06:01:55;12.27;;;6.47;;
19998;SDS011;10160;50.926;4.374;2023-07-08T06:04:20;12.10;;;6.47;;
19998;SDS011;10160;50.926;4.374;2023-07-08T06:06:47;12.32;;;7.05;;
19998;SDS011;10160;50.926;4.374;2023-07-08T06:09:13;19.98;;;7.32;;
19998;SDS011;10160;50.926;4.374;2023-07-08T06:11:38;15.07;;;6.82;;
19998;SDS011;10160;50.926;4.374;2023-07-08T06:14:04;13.05;;;6.25;;
19998;SDS011;10160;50.926;4.374;2023-07-08T06:16:30;12.38;;;6.88;;
19998;SDS011;10160;50.926;4.374;2023-07-08T06:18:56;10.63;;;6.43;;
19998;SDS011;10160;50.926;4.374;2023-07-08T06:21:22;11.18;;;6.72;;
19998;SDS011;10160;50.926;4.374;2023-07-08T06:23:48;13.02;;;6.63;;
19998;SDS011;10160;50.926;4.374;2023-07-08T06:26:14;13.43;;;6.72;;
19998;SDS011;10160;50.926;4.374;2023-07-08T06:28:40;13.20;;;6.97;;
19998;SDS011;10160;50.926;4.374;2023-07-08T06:31:05;16.42;;;6.82;;
19998;SDS011;10160;50.926;4.374;2023-07-08T06:33:31;17.48;;;6.60;;
19998;SDS011;10160;50.926;4.374;2023-07-08T06:35:56;12.80;;;6.32;;
19998;SDS011;10160;50.926;4.374;2023-07-08T06:38:22;14.63;;;6.10;;
19998;SDS011;10160;50.926;4.374;2023-07-08T06:40:48;16.00;;;6.78;;
19998;SDS011;10160;50.926;4.374;2023-07-08T06:43:14;13.52;;;6.55;;
19998;SDS011;10160;50.926;4.374;2023-07-08T06:45:40;13.75;;;6.50;;
19998;SDS011;10160;50.926;4.374;2023-07-08T06:48:06;12.63;;;6.55;;
19998;SDS011;10160;50.926;4.374;2023-07-08T06:50:32;16.15;;;6.10;;
19998;SDS011;10160;50.926;4.374;2023-07-08T06:52:57;16.27;;;6.45;;
19998;SDS011;10160;50.926;4.374;2023-07-08T06:55:23;16.63;;;6.40;;
19998;SDS011;10160;50.926;4.374;2023-07-08T06:57:49;19.65;;;7.03;;
19998;SDS011;10160;50.926;4.374;2023-07-08T07:00:15;18.90;;;7.03;;
19998;SDS011;10160;50.926;4.374;2023-07-08T07:02:41;18.50;;;6.75;;
19998;SDS011;10160;50.926;4.374;2023-07-08T07:05:07;14.93;;;6.13;;
19998;SDS011;10160;50.926;4.374;2023-07-08T07:07:33;15.25;;;6.50;;
19998;SDS011;10160;50.926;4.374;2023-07-08T07:09:59;18.00;;;6.45;;
19998;SDS011;10160;50.926;4.374;2023-07-08T07:12:25;16.25;;;6.13;;
19998;SDS011;10160;50.926;4.374;2023-07-08T07:14:52;12.93;;;5.95;;
19998;SDS011;10160;50.926;4.374;2023-07-08T07:17:21;17.45;;;6.88;;
19998;SDS011;10160;50.926;4.374;2023-07-08T07:19:48;13.38;;;5.90;;
19998;SDS011;10160;50.926;4.374;2023-07-08T07:22:14;18.10;;;6.50;;
19998;SDS011;10160;50.926;4.374;2023-07-08T07:24:40;14.18;;;6.53;;
19998;SDS011;10160;50.926;4.374;2023-07-08T07:27:07;11.18;;;6.20;;
19998;SDS011;10160;50.926;4.374;2023-07-08T07:29:41;19.67;;;6.20;;
19998;SDS011;10160;50.926;4.374;2023-07-08T07:32:09;14.38;;;5.70;;
19998;SDS011;10160;50.926;4.374;2023-07-08T07:34:36;11.85;;;6.25;;
19998;SDS011;10160;50.926;4.374;2023-07-08T07:37:02;16.30;;;6.60;;
19998;SDS011;10160;50.926;4.374;2023-07-08T07:39:27;20.58;;;5.85;;
19998;SDS011;10160;50.926;4.374;2023-07-08T07:41:54;11.38;;;5.88;;
19998;SDS011;10160;50.926;4.374;2023-07-08T07:44:19;15.48;;;5.97;;
19998;SDS011;10160;50.926;4.374;2023-07-08T07:46:45;13.07;;;5.82;;
19998;SDS011;10160;50.926;4.374;2023-07-08T07:49:12;12.13;;;5.78;;
19998;SDS011;10160;50.926;4.374;2023-07-08T07:51:38;14.68;;;6.00;;
19998;SDS011;10160;50.926;4.374;2023-07-08T07:54:04;13.48;;;6.50;;
19998;SDS011;10160;50.926;4.374;2023-07-08T07:56:30;16.98;;;6.05;;
19998;SDS011;10160;50.926;4.374;2023-07-08T07:58:55;14.10;;;5.80;;
19998;SDS011;10160;50.926;4.374;2023-07-08T08:01:21;13.70;;;5.60;;
19998;SDS011;10160;50.926;4.374;2023-07-08T08:03:48;14.55;;;5.72;;
19998;SDS011;10160;50.926;4.374;2023-07-08T08:06:16;11.50;;;5.18;;
19998;SDS011;10160;50.926;4.374;2023-07-08T08:08:43;17.27;;;6.47;;
19998;SDS011;10160;50.926;4.374;2023-07-08T08:11:09;11.00;;;5.80;;
19998;SDS011;10160;50.926;4.374;2023-07-08T08:13:34;14.88;;;6.03;;
19998;SDS011;10160;50.926;4.374;2023-07-08T08:16:00;11.70;;;6.13;;
19998;SDS011;10160;50.926;4.374;2023-07-08T08:18:26;14.45;;;6.20;;
19998;SDS011;10160;50.926;4.374;2023-07-08T08:20:52;12.07;;;6.25;;
19998;SDS011;10160;50.926;4.374;2023-07-08T08:23:18;13.25;;;6.20;;
19998;SDS011;10160;50.926;4.374;2023-07-08T08:25:43;14.23;;;5.88;;
19998;SDS011;10160;50.926;4.374;2023-07-08T08:28:09;15.52;;;6.90;;
19998;SDS011;10160;50.926;4.374;2023-07-08T08:30:35;14.07;;;6.60;;
19998;SDS011;10160;50.926;4.374;2023-07-08T08:33:03;15.35;;;6.15;;
19998;SDS011;10160;50.926;4.374;2023-07-08T08:35:29;15.10;;;6.00;;
19998;SDS011;10160;50.926;4.374;2023-07-08T08:37:55;12.98;;;6.32;;
19998;SDS011;10160;50.926;4.374;2023-07-08T08:40:20;12.60;;;6.55;;
19998;SDS011;10160;50.926;4.374;2023-07-08T08:42:51;14.25;;;6.63;;
19998;SDS011;10160;50.926;4.374;2023-07-08T08:45:22;15.52;;;6.85;;
19998;SDS011;10160;50.926;4.374;2023-07-08T08:47:52;14.63;;;6.53;;
19998;SDS011;10160;50.926;4.374;2023-07-08T08:52:55;12.02;;;6.38;;
19998;SDS011;10160;50.926;4.374;2023-07-08T08:55:22;14.82;;;6.45;;
19998;SDS011;10160;50.926;4.374;2023-07-08T08:57:55;14.50;;;6.53;;
19998;SDS011;10160;50.926;4.374;2023-07-08T09:03:22;15.82;;;6.60;;
19998;SDS011;10160;50.926;4.374;2023-07-08T09:06:12;10.75;;;6.40;;
19998;SDS011;10160;50.926;4.374;2023-07-08T09:08:41;12.18;;;6.63;;
19998;SDS011;10160;50.926;4.374;2023-07-08T09:11:13;11.40;;;6.07;;
19998;SDS011;10160;50.926;4.374;2023-07-08T09:13:58;13.90;;;7.15;;
19998;SDS011;10160;50.926;4.374;2023-07-08T09:19:14;14.82;;;6.75;;
19998;SDS011;10160;50.926;4.374;2023-07-08T09:24:41;13.57;;;6.60;;
19998;SDS011;10160;50.926;4.374;2023-07-08T09:27:09;13.20;;;6.32;;
19998;SDS011;10160;50.926;4.374;2023-07-08T09:29:35;14.48;;;6.47;;
19998;SDS011;10160;50.926;4.374;2023-07-08T09:32:01;12.02;;;6.57;;
19998;SDS011;10160;50.926;4.374;2023-07-08T09:34:44;15.20;;;6.82;;
19998;SDS011;10160;50.926;4.374;2023-07-08T09:39:51;17.92;;;7.07;;
19998;SDS011;10160;50.926;4.374;2023-07-08T09:42:18;13.02;;;6.82;;
19998;SDS011;10160;50.926;4.374;2023-07-08T09:44:47;15.30;;;6.50;;
19998;SDS011;10160;50.926;4.374;2023-07-08T09:47:23;13.25;;;6.72;;
19998;SDS011;10160;50.926;4.374;2023-07-08T09:49:56;16.00;;;7.13;;
19998;SDS011;10160;50.926;4.374;2023-07-08T09:52:22;13.20;;;6.45;;
19998;SDS011;10160;50.926;4.374;2023-07-08T09:54:48;14.57;;;7.00;;
19998;SDS011;10160;50.926;4.374;2023-07-08T10:00:00;19.77;;;7.07;;
19998;SDS011;10160;50.926;4.374;2023-07-08T10:02:51;16.60;;;6.82;;
19998;SDS011;10160;50.926;4.374;2023-07-08T10:05:30;15.85;;;7.43;;
19998;SDS011;10160;50.926;4.374;2023-07-08T10:08:15;12.25;;;7.00;;
19998;SDS011;10160;50.926;4.374;2023-07-08T10:10:57;19.70;;;6.22;;
19998;SDS011;10160;50.926;4.374;2023-07-08T10:13:40;12.15;;;6.63;;
19998;SDS011;10160;50.926;4.374;2023-07-08T10:16:28;16.20;;;6.90;;
19998;SDS011;10160;50.926;4.374;2023-07-08T10:18:56;10.38;;;5.43;;
19998;SDS011;10160;50.926;4.374;2023-07-08T10:24:30;12.05;;;6.55;;
19998;SDS011;10160;50.926;4.374;2023-07-08T10:27:47;14.45;;;6.45;;
19998;SDS011;10160;50.926;4.374;2023-07-08T10:30:35;16.40;;;6.95;;
19998;SDS011;10160;50.926;4.374;2023-07-08T10:42:00;13.35;;;6.28;;
19998;SDS011;10160;50.926;4.374;2023-07-08T11:05:36;15.23;;;6.82;;
19998;SDS011;10160;50.926;4.374;2023-07-08T11:10:56;12.45;;;6.18;;
19998;SDS011;10160;50.926;4.374;2023-07-08T11:13:24;17.20;;;7.40;;
19998;SDS011;10160;50.926;4.374;2023-07-08T11:18:54;11.77;;;6.07;;
19998;SDS011;10160;50.926;4.374;2023-07-08T11:21:27;13.13;;;6.00;;
19998;SDS011;10160;50.926;4.374;2023-07-08T11:24:00;12.65;;;6.43;;
19998;SDS011;10160;50.926;4.374;2023-07-08T11:26:29;13.70;;;6.75;;
19998;SDS011;10160;50.926;4.374;2023-07-08T11:29:01;15.63;;;6.85;;
19998;SDS011;10160;50.926;4.374;2023-07-08T11:31:36;10.60;;;6.68;;
19998;SDS011;10160;50.926;4.374;2023-07-08T11:34:02;18.15;;;7.00;;
19998;SDS011;10160;50.926;4.374;2023-07-08T11:36:28;12.60;;;6.32;;
19998;SDS011;10160;50.926;4.374;2023-07-08T11:38:57;10.65;;;6.38;;
19998;SDS011;10160;50.926;4.374;2023-07-08T11:41:26;13.57;;;7.07;;
19998;SDS011;10160;50.926;4.374;2023-07-08T11:43:56;17.80;;;7.60;;
19998;SDS011;10160;50.926;4.374;2023-07-08T11:46:25;13.75;;;6.25;;
19998;SDS011;10160;50.926;4.374;2023-07-08T11:48:55;13.30;;;6.50;;
19998;SDS011;10160;50.926;4.374;2023-07-08T11:51:29;10.88;;;6.32;;
19998;SDS011;10160;50.926;4.374;2023-07-08T11:54:11;15.18;;;6.53;;
19998;SDS011;10160;50.926;4.374;2023-07-08T11:56:46;12.25;;;6.38;;
19998;SDS011;10160;50.926;4.374;2023-07-08T11:59:18;12.60;;;6.40;;
19998;SDS011;10160;50.926;4.374;2023-07-08T12:04:30;11.48;;;6.07;;
19998;SDS011;10160;50.926;4.374;2023-07-08T12:09:48;12.02;;;4.97;;
19998;SDS011;10160;50.926;4.374;2023-07-08T12:12:28;10.32;;;5.55;;
19998;SDS011;10160;50.926;4.374;2023-07-08T12:15:05;9.98;;;5.35;;
19998;SDS011;10160;50.926;4.374;2023-07-08T12:17:39;10.52;;;5.50;;
19998;SDS011;10160;50.926;4.374;2023-07-08T12:20:06;12.05;;;5.63;;
19998;SDS011;10160;50.926;4.374;2023-07-08T12:22:43;13.80;;;5.40;;
19998;SDS011;10160;50.926;4.374;2023-07-08T12:25:12;10.00;;;4.93;;
19998;SDS011;10160;50.926;4.374;2023-07-08T12:27:41;13.75;;;5.40;;
19998;SDS011;10160;50.926;4.374;2023-07-08T12:30:09;8.82;;;5.10;;
19998;SDS011;10160;50.926;4.374;2023-07-08T12:32:36;15.73;;;6.20;;
19998;SDS011;10160;50.926;4.374;2023-07-08T12:35:02;13.40;;;5.68;;
19998;SDS011;10160;50.926;4.374;2023-07-08T12:37:30;10.98;;;5.47;;
19998;SDS011;10160;50.926;4.374;2023-07-08T12:39:57;13.23;;;5.93;;
19998;SDS011;10160;50.926;4.374;2023-07-08T12:42:30;11.80;;;5.72;;
19998;SDS011;10160;50.926;4.374;2023-07-08T12:44:56;9.88;;;5.03;;
19998;SDS011;10160;50.926;4.374;2023-07-08T12:47:22;9.50;;;5.35;;
19998;SDS011;10160;50.926;4.374;2023-07-08T12:49:48;14.63;;;4.97;;
19998;SDS011;10160;50.926;4.374;2023-07-08T12:52:23;11.48;;;4.68;;
19998;SDS011;10160;50.926;4.374;2023-07-08T12:54:49;8.25;;;4.95;;
19998;SDS011;10160;50.926;4.374;2023-07-08T12:57:18;10.02;;;5.20;;
19998;SDS011;10160;50.926;4.374;2023-07-08T12:59:44;11.80;;;5.50;;
19998;SDS011;10160;50.926;4.374;2023-07-08T13:02:17;12.68;;;5.40;;
19998;SDS011;10160;50.926;4.374;2023-07-08T13:04:45;42.38;;;7.05;;
19998;SDS011;10160;50.926;4.374;2023-07-08T13:07:29;22.42;;;5.55;;
19998;SDS011;10160;50.926;4.374;2023-07-08T13:10:03;25.80;;;5.30;;
19998;SDS011;10160;50.926;4.374;2023-07-08T13:12:30;47.42;;;6.00;;
19998;SDS011;10160;50.926;4.374;2023-07-08T13:15:00;31.65;;;5.68;;
19998;SDS011;10160;50.926;4.374;2023-07-08T13:17:27;12.50;;;4.28;;
19998;SDS011;10160;50.926;4.374;2023-07-08T13:19:54;13.05;;;4.35;;
19998;SDS011;10160;50.926;4.374;2023-07-08T13:22:21;10.90;;;3.97;;
19998;SDS011;10160;50.926;4.374;2023-07-08T13:24:48;19.25;;;5.82;;
19998;SDS011;10160;50.926;4.374;2023-07-08T13:27:23;15.52;;;6.07;;
19998;SDS011;10160;50.926;4.374;2023-07-08T13:29:51;17.27;;;5.90;;
19998;SDS011;10160;50.926;4.374;2023-07-08T13:32:17;21.20;;;6.40;;
19998;SDS011;10160;50.926;4.374;2023-07-08T13:34:43;25.70;;;7.85;;
19998;SDS011;10160;50.926;4.374;2023-07-08T13:37:10;21.92;;;7.65;;
19998;SDS011;10160;50.926;4.374;2023-07-08T13:39:43;19.83;;;5.80;;
19998;SDS011;10160;50.926;4.374;2023-07-08T13:42:10;18.63;;;6.97;;
19998;SDS011;10160;50.926;4.374;2023-07-08T13:44:46;10.35;;;4.47;;
19998;SDS011;10160;50.926;4.374;2023-07-08T13:47:20;23.08;;;7.40;;
19998;SDS011;10160;50.926;4.374;2023-07-08T13:49:54;14.00;;;5.32;;
19998;SDS011;10160;50.926;4.374;2023-07-08T13:52:30;12.30;;;6.00;;
19998;SDS011;10160;50.926;4.374;2023-07-08T13:54:59;13.38;;;4.15;;
19998;SDS011;10160;50.926;4.374;2023-07-08T13:57:35;17.27;;;5.18;;
19998;SDS011;10160;50.926;4.374;2023-07-08T14:00:04;17.45;;;5.72;;
19998;SDS011;10160;50.926;4.374;2023-07-08T14:02:32;12.73;;;5.38;;
19998;SDS011;10160;50.926;4.374;2023-07-08T14:04:59;10.45;;;4.63;;
19998;SDS011;10160;50.926;4.374;2023-07-08T14:07:28;11.07;;;4.25;;
19998;SDS011;10160;50.926;4.374;2023-07-08T14:09:55;11.38;;;4.40;;
19998;SDS011;10160;50.926;4.374;2023-07-08T14:12:21;9.00;;;4.55;;
19998;SDS011;10160;50.926;4.374;2023-07-08T14:14:50;8.95;;;4.07;;
19998;SDS011;10160;50.926;4.374;2023-07-08T14:17:20;10.82;;;3.95;;
19998;SDS011;10160;50.926;4.374;2023-07-08T14:19:48;10.45;;;4.45;;
19998;SDS011;10160;50.926;4.374;2023-07-08T14:24:50;11.48;;;4.20;;
19998;SDS011;10160;50.926;4.374;2023-07-08T14:27:16;11.60;;;4.88;;
19998;SDS011;10160;50.926;4.374;2023-07-08T14:29:43;9.73;;;4.55;;
19998;SDS011;10160;50.926;4.374;2023-07-08T14:32:16;11.45;;;4.35;;
19998;SDS011;10160;50.926;4.374;2023-07-08T14:34:56;10.25;;;4.78;;
19998;SDS011;10160;50.926;4.374;2023-07-08T14:37:46;12.52;;;4.15;;
19998;SDS011;10160;50.926;4.374;2023-07-08T14:40:19;9.88;;;4.47;;
19998;SDS011;10160;50.926;4.374;2023-07-08T14:42:47;10.27;;;4.05;;
19998;SDS011;10160;50.926;4.374;2023-07-08T14:45:12;8.43;;;4.10;;
19998;SDS011;10160;50.926;4.374;2023-07-08T14:47:38;11.32;;;4.85;;
19998;SDS011;10160;50.926;4.374;2023-07-08T14:50:14;10.52;;;4.40;;
19998;SDS011;10160;50.926;4.374;2023-07-08T14:52:40;9.90;;;4.10;;
19998;SDS011;10160;50.926;4.374;2023-07-08T14:55:06;9.80;;;4.20;;
19998;SDS011;10160;50.926;4.374;2023-07-08T14:57:39;10.70;;;4.70;;
19998;SDS011;10160;50.926;4.374;2023-07-08T15:00:10;8.45;;;4.00;;
19998;SDS011;10160;50.926;4.374;2023-07-08T15:02:41;9.98;;;4.20;;
19998;SDS011;10160;50.926;4.374;2023-07-08T15:05:18;8.88;;;4.00;;
19998;SDS011;10160;50.926;4.374;2023-07-08T15:07:52;12.35;;;3.95;;
19998;SDS011;10160;50.926;4.374;2023-07-08T15:10:19;9.75;;;4.40;;
19998;SDS011;10160;50.926;4.374;2023-07-08T15:12:48;9.23;;;4.03;;
19998;SDS011;10160;50.926;4.374;2023-07-08T15:15:26;9.75;;;4.00;;
19998;SDS011;10160;50.926;4.374;2023-07-08T15:17:56;9.93;;;4.10;;
19998;SDS011;10160;50.926;4.374;2023-07-08T15:20:26;9.20;;;3.63;;
19998;SDS011;10160;50.926;4.374;2023-07-08T15:22:52;8.82;;;4.28;;
19998;SDS011;10160;50.926;4.374;2023-07-08T15:25:18;12.23;;;4.40;;
19998;SDS011;10160;50.926;4.374;2023-07-08T15:27:45;10.50;;;4.50;;
19998;SDS011;10160;50.926;4.374;2023-07-08T15:30:19;10.05;;;4.07;;
19998;SDS011;10160;50.926;4.374;2023-07-08T15:32:46;13.48;;;4.85;;
19998;SDS011;10160;50.926;4.374;2023-07-08T15:35:16;10.65;;;3.90;;
19998;SDS011;10160;50.926;4.374;2023-07-08T15:37:49;11.30;;;4.20;;
19998;SDS011;10160;50.926;4.374;2023-07-08T15:40:16;16.88;;;4.70;;
19998;SDS011;10160;50.926;4.374;2023-07-08T15:42:47;9.02;;;4.38;;
19998;SDS011;10160;50.926;4.374;2023-07-08T15:45:16;12.55;;;4.43;;
19998;SDS011;10160;50.926;4.374;2023-07-08T15:47:47;9.88;;;4.30;;
19998;SDS011;10160;50.926;4.374;2023-07-08T15:50:13;13.73;;;4.32;;
19998;SDS011;10160;50.926;4.374;2023-07-08T15:52:40;10.07;;;4.05;;
19998;SDS011;10160;50.926;4.374;2023-07-08T15:55:10;12.05;;;4.43;;
19998;SDS011;10160;50.926;4.374;2023-07-08T15:57:44;11.80;;;4.80;;
19998;SDS011;10160;50.926;4.374;2023-07-08T16:00:17;8.60;;;4.78;;